x

Neah Bay, - 6nm North Of Cape Flattery, Wa (traffic Separation Lighted Buoy) (46087) Wave Buoy

10:50pm - Sun 24th May 2015 All times are PDT. -7 hours from GMT.

  • Sig Wave height 4.3ft
  • Swell Direction
  • Peak Period 11s
  • Average Period 7s
  • Wind
    4mph
  • Sea Temp 51°f
  • Air Temp 51°f
  • Sea Pressure 1017mb
  • Neah Bay, - 6nm North Of Cape Flattery, Wa     (traffic Separation Lighted Buoy)
  • Neah Bay, - 6nm North Of Cape Flattery, Wa     (traffic Separation Lighted Buoy)

More Historic Weather Station data

Upgrade to MSW Pro to gain access to the past 30 days of data for over 8000 Wavebouys and Weather Stations around the globe.

Join Pro

Comparision Forecast

View Surf forecast
   
Sun 05/24 10:50pm 4.5ft 11s 7s 4
mph
1017mb 51f 51f
10:20pm 4.5ft 7s 7s 4 7 mph 1017mb 51f 51f
9:50pm 4.5ft 7s 7s 4 7 mph 1017mb 51f 51f
9:20pm 4.5ft 11s 6s 2 4 mph 1017mb 51f 51f
8:50pm 4ft 9s 6s 2 4 mph 1017mb 51f 51f
8:20pm 4.5ft 7s 6s 4 7 mph 1017mb 51f 51f
7:50pm 4.5ft 7s 6s 4
mph
1017.1mb 51f 51f
7:20pm 4.5ft 7s 6s 7
mph
1017.3mb 51f 51f
6:50pm 4.5ft 7s 6s 7
mph
1017.5mb 51f 51f
6:20pm 4.5ft 8s 6s 7 9 mph 1017.7mb 51f 51f
5:50pm 4.5ft 8s 6s 9
mph
1018mb 51f 51f
5:20pm 4.5ft 7s 6s 9 11 mph 1018.1mb 52f 51f
4:50pm 4.5ft 7s 6s 4 7 mph 1018.4mb 52f 51f
4:20pm 4.5ft 8s 6s 7 9 mph 1018.5mb 52f 51f
3:50pm 4.5ft 7s 6s 7
mph
1019mb 52f 52f
3:20pm 4.5ft 7s 6s 4
mph
1019.1mb 52f 52f
2:50pm 4.5ft 7s 6s 4
mph
1019.3mb 51f 51f
2:20pm 4.5ft 7s 6s 4 7 mph 1019.7mb 51f 51f
1:50pm 4.5ft 7s 7s 7 9 mph 1020mb 51f 50f
1:20pm 4.5ft 7s 7s 7 9 mph 1020.2mb 51f 51f
12:50pm 5ft 8s 7s 7
mph
1020.3mb 51f 51f
12:20pm 5ft 7s 7s 4 7 mph 1020.4mb 51f 51f
11:50am 5.5ft 7s 7s 7
mph
1020.6mb 51f 51f
11:20am 5.5ft 8s 7s 4
mph
1020.7mb 51f 51f
10:50am 6ft 7s 7s 2 4 mph 1020.9mb 51f 51f
10:20am 5.5ft 8s 7s  -  2 mph 1021mb 51f 51f
9:50am 6ft 7s 7s  -  2 mph 1021.1mb 51f 51f
9:20am 5.5ft 7s 7s  -  2 mph 1021.2mb 51f 51f
8:50am 6ft 7s 6s  -  2 mph 1021.2mb 50f 50f
8:20am 6ft 7s 7s 2
mph
1021.1mb 50f 50f
7:50am 6ft 8s 6s 2 4 mph 1021.3mb 50f 50f
7:20am 6ft 7s 7s 2 4 mph 1021.4mb 50f 50f
6:50am 5ft 8s 6s 4 7 mph 1021.3mb 50f 50f
6:20am 5.5ft 7s 6s 7
mph
1021.2mb 50f 50f
5:50am 5ft 7s 6s 7 9 mph 1021.2mb 50f 50f
5:20am 5.5ft 11s 7s 9
mph
1021.1mb 50f 50f
4:50am 5ft 8s 7s 7 9 mph 1021.1mb 50f 50f
4:20am 5ft 8s 6s 9 11 mph 1021.1mb 50f 50f
3:50am 4.5ft 11s 7s 4 7 mph 1021.4mb 50f 50f
3:20am 4.5ft 11s 7s 7 9 mph 1021.6mb 50f 50f
2:50am 4.5ft 9s 7s 7 9 mph 1021.7mb 50f 50f
2:20am 4.5ft 12s 7s 4 7 mph 1022mb 50f 50f
1:50am 4.5ft 11s 7s 7 9 mph 1022.3mb 50f 50f
1:20am 4.5ft 12s 7s 7 9 mph 1022.4mb 50f 51f
12:50am 4.5ft 12s 7s 7 9 mph 1022.6mb 51f 50f
12:20am 4.5ft 12s 6s 9 11 mph 1022.5mb 51f 50f
Sat 05/23 11:50pm 4.5ft 12s 7s 9 11 mph 1022.4mb 51f 51f
11:20pm 4.5ft 12s 7s 7
mph
1022.3mb 51f 51f
10:50pm 4.5ft 9s 7s 4 7 mph 1022.3mb 51f 51f
10:20pm 4ft 10s 7s 7 9 mph 1022.3mb 51f 51f
9:50pm 4.5ft 11s 6s 7 9 mph 1022.3mb 51f 51f
9:20pm 4.5ft 9s 7s 7
mph
1022.1mb 51f 51f
8:50pm 4ft 8s 6s 4 7 mph 1021.9mb 51f 51f
8:20pm 4ft 10s 6s 4
mph
1021.8mb 51f 51f
7:50pm 4.5ft 10s 6s 4 7 mph 1021.8mb 51f 51f
7:20pm 4ft 8s 6s 7 9 mph 1021.7mb 50f 51f
6:50pm 4ft 10s 6s 7 9 mph 1021.7mb 50f 51f
6:20pm 4.5ft 12s 6s 7
mph
1021.9mb 50f 51f
5:50pm 4ft 12s 6s 7
mph
1022mb 51f 51f
5:20pm 4.5ft 10s 6s 7
mph
1022.1mb 51f 51f
4:50pm 4.5ft 7s 6s 7
mph
1022.3mb 51f 51f
4:20pm 4.5ft 9s 6s 7 9 mph 1022.4mb 51f 51f
3:50pm 4.5ft 9s 6s 7
mph
1022.5mb 51f 51f
3:20pm 4.5ft 8s 6s 7 9 mph 1022.6mb 51f 51f
2:50pm 4.5ft 7s 6s 7 9 mph 1022.8mb 51f 51f
2:20pm 4.5ft 12s 7s 9
mph
1022.8mb 51f 51f
1:50pm 4.5ft 7s 7s 7 9 mph 1022.7mb 51f 51f
1:20pm 4.5ft 8s 7s 4 7 mph 1022.7mb 51f 51f
12:50pm 4.5ft 7s 7s 4 7 mph 1022.6mb 51f 51f
12:20pm 5ft 8s 7s 4
mph
1022.4mb 51f 51f
11:50am 5ft 8s 7s 4
mph
1022.3mb 51f 51f
11:20am 4.5ft 8s 7s 4
mph
1022.1mb 50f 51f
10:50am 5ft 7s 7s 4 7 mph 1021.9mb 51f 51f
10:20am 5ft 7s 7s 7
mph
1021.8mb 50f 51f
9:50am 5.5ft 7s 7s 2 4 mph 1021.7mb 50f 51f
9:20am 5.5ft 7s 7s 4
mph
1021.4mb 50f 51f
8:50am 5ft 8s 7s 2 4 mph 1021.1mb 50f 51f
8:20am 5.5ft 8s 7s 2 4 mph 1020.9mb 50f 51f
7:50am 5ft 8s 7s 4
mph
1020.5mb 50f 51f
7:20am 5ft 8s 7s 2 4 mph 1020.3mb 50f 51f
6:50am 5.5ft 8s 7s 2 4 mph 1020.2mb 50f 51f
6:20am 6ft 8s 7s 2 4 mph 1019.9mb 50f 51f
5:50am 5ft 7s 7s 4
mph
1019.7mb 50f 50f
5:20am 5ft 7s 7s 2 4 mph 1019.6mb 50f 50f
4:50am 5ft 7s 7s 4
mph
1019.6mb 50f 50f
4:20am 5ft 8s 7s 2 4 mph 1019.6mb 50f 51f
3:50am 5ft 8s 7s 4 7 mph 1019.5mb 50f 51f
3:20am 5ft 8s 7s 4 7 mph 1019.4mb 50f 51f
2:50am 5ft 9s 7s 2 4 mph 1019.2mb 50f 51f
2:20am 5ft 8s 7s 4
mph
1019.1mb 50f 51f
1:50am 5ft 8s 7s 2 4 mph 1018.8mb 50f 51f
1:20am 5ft 9s 7s 4 7 mph 1018.8mb 51f 51f
12:50am 5ft 8s 7s 7 9 mph 1018.5mb 50f 51f
12:20am 4.5ft 8s 7s 9
mph
1018.6mb 50f 51f
Fri 05/22 11:50pm 4.5ft 8s 7s 4 7 mph 1018.5mb 51f 51f
11:20pm 4.5ft 8s 7s 7 9 mph 1018.3mb 51f 51f
10:50pm 4.5ft 8s 7s 13 18 mph 1018mb 51f 52f
10:20pm 4.5ft 8s  -  9 11 mph 1017.8mb 51f 52f
9:50pm 5ft 8s 7s 9 11 mph 1017.5mb 51f 52f
9:20pm 4.5ft 8s 7s 9 11 mph 1017.2mb 51f 52f
8:50pm 4.5ft 8s 7s 9 11 mph 1017.1mb 51f 52f
8:20pm 4.5ft 7s 7s 7 9 mph 1017.2mb 51f 52f
7:50pm 4.5ft 9s 6s 7 9 mph 1016.9mb 51f 52f
7:20pm 5ft 8s 7s 4 7 mph 1016.7mb 51f 51f
6:50pm 5ft 8s 6s 4 7 mph 1016.6mb 51f 51f
6:20pm 4.5ft 10s 6s 7
mph
1016.6mb 51f 51f
5:50pm 5ft 8s 6s 7
mph
1016.3mb 51f 51f
5:20pm 5ft 7s 6s 9 11 mph 1016.2mb 51f 51f
4:50pm 5ft 8s 7s 7
mph
1016.4mb 51f 51f
4:20pm 5ft 8s 6s 7
mph
1016.3mb 51f 51f
3:50pm 5.5ft 8s 6s 4 7 mph 1016.4mb 51f 51f
3:20pm 5.5ft 8s 6s 4 7 mph 1016.5mb 51f 51f
2:50pm 5.5ft 8s 6s 4 7 mph 1016.6mb 51f 51f
2:20pm 5ft 9s 7s 4 7 mph 1016.5mb 51f 51f
1:50pm 5.5ft 9s 7s 7
mph
1016.6mb 51f 51f
1:20pm 5.5ft 8s 7s 4
mph
1016.6mb 50f 51f
12:50pm 6ft 8s 7s 4 7 mph 1016.6mb 50f 51f
12:20pm 6ft 8s 7s 4 7 mph 1016.5mb 50f 51f
11:50am 5.5ft 8s 7s 4 7 mph 1016.3mb 50f 51f
11:20am 6ft 8s 7s 4 7 mph 1016.1mb 50f 50f
10:50am 6ft 8s 7s 4 7 mph 1015.7mb 50f 50f
10:20am 6ft 8s 7s 2 4 mph 1015.6mb 50f 50f
9:50am 6ft 8s 7s 2
mph
1015.3mb 50f 50f
9:20am 6ft 8s 7s  -  2 mph 1015.1mb 50f 50f
8:50am 6ft 8s 7s 2 4 mph 1015mb 50f 50f
8:20am 6ft 8s 7s 2 4 mph 1014.8mb 50f 50f
7:50am 6ft 8s 7s 4 7 mph 1014.6mb 50f 51f
7:20am 6.5ft 8s 7s 4
mph
1014.5mb 50f 50f
6:50am 7ft 8s 7s 2 4 mph 1014.5mb 50f 51f
6:20am 6.5ft 8s 7s 7
mph
1014.3mb 50f 51f
5:50am 6.5ft 8s 7s 4 7 mph 1014.2mb 50f 50f
5:20am 7ft 8s 7s 4 7 mph 1014.1mb 50f 51f
4:50am 7ft 7s 7s 4 7 mph 1014mb 50f 51f
4:20am 6.5ft 8s 7s 7 9 mph 1014.1mb 50f 51f
3:50am 6.5ft 8s 7s 7 9 mph 1014.2mb 50f 50f
3:20am 7.5ft 8s 7s 7
mph
1013.9mb 50f 50f
2:50am 7ft 8s 7s 4 7 mph 1013.9mb 50f 51f
2:20am 7ft 9s 7s 4 7 mph 1013.7mb 50f 51f
1:50am 6ft 8s 7s 7 9 mph 1013.7mb 50f 51f
1:20am 6ft 8s 7s 7 9 mph 1013.5mb 50f 51f
12:50am 6ft 9s 7s 7 9 mph 1013.4mb 50f 51f
12:20am 5.5ft 9s 7s 7
mph
1013.6mb 51f 51f
Thu 05/21 11:50pm 6ft 8s 7s 9 11 mph 1013.4mb 51f 51f
11:20pm 5.5ft 10s 8s 9 11 mph 1013.1mb 51f 51f
10:50pm 5ft 11s 7s 9 11 mph 1012.8mb 51f 51f
10:20pm 5.5ft 10s 7s 11 13 mph 1012.8mb 51f 51f
9:50pm 5.5ft 10s 7s 9 11 mph 1012.7mb 51f 51f
9:20pm 5ft 10s 7s 7 11 mph 1012.5mb 51f 51f
8:50pm 5ft 10s 7s 7 11 mph 1012.2mb 51f 51f
8:20pm 5ft 10s 7s 9 11 mph 1012mb 51f 51f
7:50pm 5ft 10s 7s 9 11 mph 1012mb 51f 51f
7:20pm 5ft 11s 7s 11 13 mph 1012mb 51f 51f
6:50pm 5ft 8s 7s 11 13 mph 1011.8mb 51f 51f
6:20pm 5ft 11s 7s 11
mph
1011.9mb 51f 51f
5:50pm 5ft 10s 7s 9 11 mph 1012mb 51f 51f
5:20pm 6ft 10s 7s 11 13 mph 1011.8mb 51f 51f
4:50pm 6ft 10s 7s 9 11 mph 1011.8mb 51f 51f
4:20pm 5.5ft 11s 7s 9 11 mph 1012mb 51f 51f
3:50pm 5.5ft 11s 7s 11 13 mph 1012.2mb 51f 51f
3:20pm 6ft 7s 7s 9 11 mph 1012.4mb 51f 51f
2:50pm 6ft 7s 7s 9 11 mph 1012.6mb 51f 51f
2:20pm 6ft 11s 7s 7 9 mph 1012.7mb 51f 51f
9:20am  -   -   -  4
mph
1012.9mb 49f 49f
8:50am 5ft 8s 7s 4 7 mph 1012.8mb 49f 49f
8:20am  -   -   -  2 7 mph 1012.7mb 49f 49f
7:50am 5ft 11s 7s 2 4 mph 1012.6mb 50f 49f
7:20am  -   -   -  4 7 mph 1012.8mb 49f 49f
6:50am 5.5ft 11s 7s 7 9 mph 1012.7mb 49f 49f